Time;durP1;ratioP1;P1;durP2;ratioP2;P2;SDS_P1;SDS_P2;PMS_P1;PMS_P2;Temp;Humidity;BMP_temperature;BMP_pressure;BME280_temperature;BME280_humidity;BME280_pressure;Samples;Min_cycle;Max_cycle;Signal;HPM_P1;HPM_P2
2021/06/03 00:00:35;;;;;;;;;20.50;18.25;;;;;22.36;60.77;101398.34;5079690;27;47015;-68
2021/06/03 00:03:00;;;;;;;;;19.50;18.50;;;;;22.26;61.15;101388.22;5079916;27;45586;-67
2021/06/03 00:05:29;;;;;;;;;18.25;18.25;;;;;22.26;60.92;101377.56;5078690;28;45483;-67
2021/06/03 00:07:56;;;;;;;;;16.75;16.00;;;;;22.37;60.79;101395.59;5079988;27;45426;-68
2021/06/03 00:10:27;;;;;;;;;11.00;10.00;;;;;22.30;60.98;101389.75;5079688;27;46790;-68
2021/06/03 00:12:54;;;;;;;;;15.50;14.25;;;;;22.08;60.98;101367.88;5079776;27;45692;-69
2021/06/03 00:15:20;;;;;;;;;18.50;17.25;;;;;22.12;61.09;101376.56;5079783;27;45324;-69
2021/06/03 00:17:46;;;;;;;;;21.75;17.75;;;;;22.13;60.74;101379.13;5079808;28;45279;-69
2021/06/03 00:20:15;;;;;;;;;17.50;16.75;;;;;22.15;62.05;101381.72;5078302;28;47163;-69
2021/06/03 00:22:41;;;;;;;;;18.00;18.00;;;;;22.14;61.33;101383.50;5079379;27;45449;-68
2021/06/03 00:25:07;;;;;;;;;18.00;17.00;;;;;22.11;61.60;101386.34;5079938;28;45308;-69
2021/06/03 00:27:33;;;;;;;;;17.75;17.75;;;;;22.02;62.08;101387.66;5079523;27;45367;-68
2021/06/03 00:29:58;;;;;;;;;16.50;15.25;;;;;22.01;61.82;101399.22;5079630;28;46465;-69
2021/06/03 00:32:23;;;;;;;;;19.50;17.50;;;;;21.95;62.01;101407.53;5079448;28;45358;-69
2021/06/03 00:34:49;;;;;;;;;16.25;15.25;;;;;21.92;62.23;101414.78;5079436;27;45330;-68
2021/06/03 00:37:14;;;;;;;;;20.25;18.00;;;;;21.81;62.51;101394.06;5079410;28;45421;-68
2021/06/03 00:43:01;;;;;;;;;17.50;15.75;;;;;21.89;61.86;101404.31;5079157;28;45573;-68
2021/06/03 00:45:31;;;;;;;;;18.25;16.00;;;;;21.82;62.00;101398.44;5079273;28;45372;-68
2021/06/03 00:47:57;;;;;;;;;21.75;18.00;;;;;21.92;61.84;101414.78;5079424;27;45396;-68
2021/06/03 00:50:28;;;;;;;;;21.50;18.75;;;;;21.91;61.98;101413.06;5078993;27;47018;-68
2021/06/03 00:52:54;;;;;;;;;16.50;16.50;;;;;21.89;62.31;101414.94;5079090;27;45464;-69
2021/06/03 00:55:20;;;;;;;;;17.50;16.75;;;;;21.89;62.34;101417.59;5079112;27;45418;-68
2021/06/03 00:57:45;;;;;;;;;17.00;16.00;;;;;21.87;62.15;101423.00;5079246;27;45452;-68
2021/06/03 01:00:13;;;;;;;;;19.25;16.25;;;;;21.85;61.95;101416.03;5078803;28;45342;-68
2021/06/03 01:02:40;;;;;;;;;20.00;18.50;;;;;21.84;62.41;101417.84;5078880;27;45533;-68
2021/06/03 01:05:13;;;;;;;;;18.00;16.00;;;;;21.75;62.15;101410.34;5079082;27;45374;-67
2021/06/03 01:07:38;;;;;;;;;19.75;16.25;;;;;21.78;62.19;101417.28;5077823;28;45626;-67
2021/06/03 01:13:45;;;;;;;;;18.00;17.00;;;;;21.76;61.76;101421.81;5078676;28;45295;-68
2021/06/03 01:16:12;;;;;;;;;18.50;16.75;;;;;21.75;62.08;101430.75;5079067;27;45369;-68
2021/06/03 01:18:39;;;;;;;;;17.25;15.75;;;;;21.75;61.97;101428.94;5077209;28;45401;-69
2021/06/03 01:21:11;;;;;;;;;20.00;16.50;;;;;21.73;62.71;101421.94;5078436;27;45761;-68
2021/06/03 01:23:50;;;;;;;;;18.25;18.00;;;;;21.65;61.78;101425.84;5078458;27;45272;-68
2021/06/03 01:26:16;;;;;;;;;17.50;15.75;;;;;21.68;62.62;101431.03;5078865;28;45450;-68
2021/06/03 01:28:43;;;;;;;;;16.50;16.00;;;;;21.74;61.86;101437.84;5077839;28;45359;-68
2021/06/03 01:31:09;;;;;;;;;20.00;18.50;;;;;21.66;62.91;101426.72;5078723;27;46819;-68
2021/06/03 01:33:38;;;;;;;;;20.00;17.25;;;;;21.71;62.21;101433.53;5078364;27;45419;-68
2021/06/03 01:36:08;;;;;;;;;16.00;16.00;;;;;21.70;62.94;101446.88;5078597;27;45275;-67
2021/06/03 01:38:36;;;;;;;;;20.50;18.00;;;;;21.49;61.91;101402.75;5078493;27;45350;-67
2021/06/03 01:41:04;;;;;;;;;20.75;17.75;;;;;21.68;62.41;101441.66;5078176;27;46333;-65
2021/06/03 01:43:32;;;;;;;;;18.50;16.50;;;;;21.63;62.63;101450.78;5078508;27;45640;-67
2021/06/03 01:45:58;;;;;;;;;20.75;20.00;;;;;21.63;62.26;101435.72;5078412;28;45308;-67
2021/06/03 01:48:24;;;;;;;;;21.25;19.00;;;;;21.63;61.90;101437.50;5078710;27;45455;-67
2021/06/03 01:50:52;;;;;;;;;18.75;16.50;;;;;21.65;62.67;101446.25;5078115;27;47158;-67
2021/06/03 01:53:20;;;;;;;;;20.75;18.75;;;;;21.65;62.34;101444.47;5078099;27;45175;-68
2021/06/03 01:55:45;;;;;;;;;21.75;19.00;;;;;21.68;62.26;101451.41;5077944;27;45396;-67
2021/06/03 01:58:12;;;;;;;;;16.50;15.75;;;;;21.71;62.09;101465.41;5078281;27;45440;-68
2021/06/03 02:00:37;;;;;;;;;18.25;17.75;;;;;21.65;62.01;101454.25;5076598;28;47284;-68
2021/06/03 02:03:03;;;;;;;;;15.50;15.50;;;;;21.73;61.88;101473.34;5077893;27;45434;-68
2021/06/03 02:05:29;;;;;;;;;18.00;15.25;;;;;21.77;61.57;101476.72;5076863;28;45521;-68
2021/06/03 02:07:54;;;;;;;;;19.50;18.50;;;;;21.76;61.53;101457.25;5078157;27;45501;-68
2021/06/03 02:10:21;;;;;;;;;24.50;20.25;;;;;21.85;61.95;101466.56;5077634;28;48486;-68
2021/06/03 02:13:02;;;;;;;;;18.25;16.50;;;;;21.89;61.07;101473.44;5076554;28;45287;-68
2021/06/03 02:15:36;;;;;;;;;20.25;18.75;;;;;21.94;61.29;101472.25;5077955;27;45393;-68
2021/06/03 02:18:05;;;;;;;;;21.50;18.00;;;;;21.88;61.16;101458.41;5077905;27;45359;-68
2021/06/03 02:20:35;;;;;;;;;23.25;16.75;;;;;21.86;61.27;101462.94;5077602;27;45692;-68
2021/06/03 02:23:01;;;;;;;;;19.75;19.00;;;;;21.88;61.30;101474.38;5077592;27;45329;-68
2021/06/03 02:25:28;;;;;;;;;19.00;17.25;;;;;21.92;61.12;101479.44;5077703;27;45339;-68
2021/06/03 02:27:55;;;;;;;;;22.50;20.00;;;;;21.88;60.95;101469.91;5077354;27;45519;-68
2021/06/03 02:30:21;;;;;;;;;20.25;18.50;;;;;21.95;61.02;101479.31;5076696;27;45436;-67
2021/06/03 02:32:49;;;;;;;;;16.50;15.50;;;;;21.97;60.97;101481.91;5077584;27;45509;-68
2021/06/03 02:35:15;;;;;;;;;22.50;19.75;;;;;21.92;60.58;101463.50;5076330;28;45262;-68
2021/06/03 02:37:43;;;;;;;;;19.25;18.50;;;;;22.02;60.78;101478.06;5077750;27;45305;-68
2021/06/03 02:43:30;;;;;;;;;20.50;19.50;;;;;21.98;60.58;101481.81;5077562;28;45579;-68
2021/06/03 02:45:55;;;;;;;;;21.50;19.75;;;;;21.96;60.24;101489.03;5077486;27;45395;-68
2021/06/03 02:48:22;;;;;;;;;21.25;20.75;;;;;21.92;60.34;101486.56;5077866;27;45346;-68
2021/06/03 02:50:47;;;;;;;;;20.00;18.00;;;;;21.90;60.57;101486.66;5077204;27;47387;-68
2021/06/03 02:53:13;;;;;;;;;21.75;19.75;;;;;21.88;60.75;101491.19;5077467;27;45251;-68
2021/06/03 02:55:39;;;;;;;;;21.50;19.75;;;;;21.88;60.98;101490.31;5077249;27;45435;-68
2021/06/03 02:58:06;;;;;;;;;21.75;21.25;;;;;21.87;60.55;101491.25;5077449;28;45353;-68
2021/06/03 03:00:33;;;;;;;;;19.75;18.75;;;;;21.93;60.98;101499.78;5077067;27;46073;-68
2021/06/03 03:03:00;;;;;;;;;20.75;19.00;;;;;21.93;61.09;101497.13;5077160;27;45636;-68
2021/06/03 03:05:26;;;;;;;;;17.50;16.25;;;;;21.98;61.15;101494.25;5077237;27;45355;-68
2021/06/03 03:07:52;;;;;;;;;21.25;20.50;;;;;22.00;60.55;101495.03;5077403;27;45541;-68
2021/06/03 03:13:39;;;;;;;;;18.00;16.75;;;;;22.01;60.97;101500.28;5077019;28;45404;-67
2021/06/03 03:16:05;;;;;;;;;20.50;17.25;;;;;21.94;61.01;101496.19;5077115;28;45343;-67
2021/06/03 03:18:30;;;;;;;;;18.75;18.00;;;;;22.01;60.72;101508.25;5077135;28;45315;-68
2021/06/03 03:20:56;;;;;;;;;21.75;21.75;;;;;22.01;60.71;101510.94;5076926;28;46592;-68
2021/06/03 03:23:22;;;;;;;;;20.50;19.00;;;;;22.01;60.53;101510.94;5076859;28;45461;-68
2021/06/03 03:25:47;;;;;;;;;18.75;16.50;;;;;22.00;60.59;101511.88;5075819;28;45475;-67
2021/06/03 03:28:13;;;;;;;;;21.50;19.75;;;;;22.06;60.57;101517.84;5075737;28;45359;-68
2021/06/03 03:30:43;;;;;;;;;20.00;18.50;;;;;22.01;60.43;101516.25;5076731;27;47260;-68
2021/06/03 03:33:11;;;;;;;;;19.25;17.00;;;;;22.04;60.75;101527.66;5076802;27;45322;-66
2021/06/03 03:35:37;;;;;;;;;22.50;21.00;;;;;22.03;60.56;101526.81;5076927;27;45330;-67
2021/06/03 03:38:03;;;;;;;;;18.75;16.50;;;;;22.03;60.87;101526.81;5076875;27;45509;-67
2021/06/03 03:43:50;;;;;;;;;23.50;20.75;;;;;21.98;60.72;101520.84;5080096;28;45335;-67
2021/06/03 03:46:16;;;;;;;;;19.00;16.50;;;;;22.03;60.70;101534.78;5080229;27;45349;-68
2021/06/03 03:48:42;;;;;;;;;22.00;20.50;;;;;22.00;60.66;101534.94;5080408;27;45326;-67
2021/06/03 03:51:10;;;;;;;;;18.50;15.75;;;;;22.00;60.41;101526.97;5079910;27;46707;-68
2021/06/03 03:53:35;;;;;;;;;16.00;15.25;;;;;22.00;60.48;101542.91;5080103;27;45237;-67
2021/06/03 03:56:00;;;;;;;;;18.25;16.50;;;;;22.01;60.58;101545.50;5080339;27;45320;-67
2021/06/03 03:58:26;;;;;;;;;20.50;20.25;;;;;21.99;60.86;101546.50;5080053;28;45213;-67
2021/06/03 04:00:51;;;;;;;;;18.25;18.00;;;;;21.93;61.28;101541.47;5079761;27;47139;-67
2021/06/03 04:03:17;;;;;;;;;17.25;16.50;;;;;21.97;60.65;101543.94;5079900;27;45318;-68
2021/06/03 04:05:42;;;;;;;;;21.00;18.75;;;;;21.96;61.24;101541.34;5079932;28;45273;-68
2021/06/03 04:08:08;;;;;;;;;18.25;17.50;;;;;22.03;60.83;101553.41;5080043;27;45500;-67
2021/06/03 04:13:55;;;;;;;;;22.50;21.50;;;;;22.09;60.91;101568.22;5079815;28;45703;-67
2021/06/03 04:16:20;;;;;;;;;21.50;21.00;;;;;22.02;60.64;101555.19;5080030;27;45405;-67
2021/06/03 04:18:45;;;;;;;;;19.00;18.25;;;;;22.07;60.53;101568.28;5079877;27;45481;-67
2021/06/03 04:21:11;;;;;;;;;19.50;19.25;;;;;22.06;60.56;101569.22;5079454;27;47328;-67
2021/06/03 04:23:36;;;;;;;;;19.00;18.75;;;;;22.07;60.27;101570.97;5079474;27;45275;-67
2021/06/03 04:26:02;;;;;;;;;22.75;20.25;;;;;22.11;60.45;101577.84;5079623;27;45227;-68
2021/06/03 04:28:27;;;;;;;;;23.25;22.25;;;;;22.04;60.13;101565.78;5079606;27;45218;-68
2021/06/03 04:30:52;;;;;;;;;20.25;18.25;;;;;22.13;60.43;101581.28;5079267;27;47304;-69
2021/06/03 04:33:21;;;;;;;;;18.50;16.00;;;;;22.13;60.30;101580.44;5079742;28;45224;-68
2021/06/03 04:35:47;;;;;;;;;19.25;18.50;;;;;22.07;60.31;101570.09;5079419;27;45428;-68
2021/06/03 04:38:12;;;;;;;;;22.25;18.50;;;;;22.13;60.13;101580.44;5079731;27;45433;-68
2021/06/03 04:43:59;;;;;;;;;20.50;19.25;;;;;22.13;60.46;101585.75;5079226;28;45219;-68
2021/06/03 04:46:24;;;;;;;;;19.25;19.25;;;;;22.03;60.10;101572.00;5078065;28;45233;-67
2021/06/03 04:48:50;;;;;;;;;20.75;16.50;;;;;22.05;60.62;101582.63;5079262;27;45488;-68
2021/06/03 04:51:15;;;;;;;;;21.75;19.50;;;;;22.09;60.55;101593.03;5078730;28;45404;-68
2021/06/03 04:53:41;;;;;;;;;20.75;19.25;;;;;21.98;60.16;101576.69;5078723;27;45342;-68
2021/06/03 04:56:06;;;;;;;;;22.25;21.00;;;;;21.98;60.18;101580.22;5079013;27;45409;-68
2021/06/03 04:58:31;;;;;;;;;21.25;20.25;;;;;21.96;60.71;101576.78;5079196;28;45472;-69
2021/06/03 05:00:57;;;;;;;;;23.00;19.50;;;;;22.05;60.55;101586.13;5078826;27;47120;-68
2021/06/03 05:03:22;;;;;;;;;44.25;34.75;;;;;21.92;60.61;101564.53;5078763;27;45560;-67
2021/06/03 05:05:48;;;;;;;;;23.75;22.75;;;;;22.07;60.70;101583.41;5078911;28;45334;-67
2021/06/03 05:08:15;;;;;;;;;24.00;21.25;;;;;22.14;60.37;101592.78;5079042;28;45355;-68
2021/06/03 05:14:02;;;;;;;;;22.50;18.50;;;;;22.24;60.53;101589.63;5078692;28;45346;-68
2021/06/03 05:16:27;;;;;;;;;20.00;19.00;;;;;22.26;59.81;101585.06;5078693;27;45354;-68
2021/06/03 05:18:53;;;;;;;;;18.25;17.75;;;;;22.27;60.12;101593.94;5078722;27;45422;-68
2021/06/03 05:21:18;;;;;;;;;22.00;20.00;;;;;22.37;59.91;101599.63;5078229;28;46459;-68
2021/06/03 05:23:43;;;;;;;;;24.25;22.50;;;;;22.35;59.96;101590.88;5078710;27;45291;-67
2021/06/03 05:26:09;;;;;;;;;20.50;19.50;;;;;22.38;59.78;101601.34;5077874;27;45366;-68
2021/06/03 05:28:34;;;;;;;;;20.00;18.00;;;;;22.39;60.00;101597.75;5077994;28;45518;-68
2021/06/03 05:30:59;;;;;;;;;21.00;20.25;;;;;22.48;59.67;101613.28;5077846;28;47116;-68
2021/06/03 05:33:25;;;;;;;;;20.50;19.75;;;;;22.50;59.40;101619.38;5078388;28;45341;-68
2021/06/03 05:35:50;;;;;;;;;21.50;20.25;;;;;22.49;59.57;101615.00;5078134;28;45289;-68
2021/06/03 05:38:16;;;;;;;;;23.50;20.00;;;;;22.50;59.58;101612.28;5078379;27;45466;-68
2021/06/03 05:44:08;;;;;;;;;19.00;18.00;;;;;22.62;59.28;101613.44;5078018;28;45642;-64
2021/06/03 05:46:34;;;;;;;;;21.50;19.25;;;;;22.66;59.39;101607.03;5078064;27;45278;-66
2021/06/03 05:49:03;;;;;;;;;19.75;19.25;;;;;22.71;59.36;101605.00;5078482;27;45222;-66
2021/06/03 05:51:29;;;;;;;;;24.25;20.50;;;;;22.79;58.92;101609.91;5077561;27;47051;-66
2021/06/03 05:53:54;;;;;;;;;21.00;20.25;;;;;22.79;59.27;101608.13;5078011;27;45434;-66
2021/06/03 05:56:22;;;;;;;;;37.00;33.25;;;;;22.83;58.77;101604.38;5077893;27;45361;-67
2021/06/03 05:58:47;;;;;;;;;25.25;21.00;;;;;22.85;58.59;101604.31;5077972;27;45387;-66
2021/06/03 06:01:13;;;;;;;;;21.50;18.25;;;;;22.92;58.88;101614.59;5077529;28;46370;-66
2021/06/03 06:03:49;;;;;;;;;23.00;20.50;;;;;22.94;58.54;101608.31;5077559;27;45248;-66
2021/06/03 06:08:40;;;;;;;;;24.00;19.00;;;;;23.07;58.95;101623.56;5077756;27;45258;-65
2021/06/03 06:11:05;;;;;;;;;23.75;21.25;;;;;23.04;58.32;101617.53;5077557;28;46639;-66
2021/06/03 06:13:32;;;;;;;;;22.00;20.50;;;;;23.02;58.20;101611.44;5077372;27;45493;-66
2021/06/03 06:15:57;;;;;;;;;22.50;20.00;;;;;23.10;58.11;101633.22;5077601;27;45363;-66
2021/06/03 06:18:22;;;;;;;;;20.75;18.75;;;;;23.13;58.25;101631.25;5077298;27;45457;-66
2021/06/03 06:20:48;;;;;;;;;21.25;20.00;;;;;22.99;57.85;101604.47;5077331;27;46146;-66
2021/06/03 06:23:15;;;;;;;;;20.00;17.50;;;;;23.19;57.78;101638.91;5077550;27;45436;-67
2021/06/03 06:29:15;;;;;;;;;20.00;19.00;;;;;23.27;57.86;101637.63;5068919;28;45386;-66
2021/06/03 06:31:41;;;;;;;;;18.50;18.50;;;;;23.35;57.62;101641.63;5076986;28;46274;-66
2021/06/03 06:34:06;;;;;;;;;23.25;21.75;;;;;23.43;57.19;101636.75;5075952;28;45344;-66
2021/06/03 06:36:31;;;;;;;;;22.00;19.50;;;;;23.52;57.39;101646.91;5077279;27;45337;-65
2021/06/03 06:38:57;;;;;;;;;21.25;20.50;;;;;23.61;56.62;101650.94;5077114;27;45489;-65
2021/06/03 06:41:22;;;;;;;;;18.25;18.25;;;;;23.63;56.96;101646.38;5076632;28;47025;-66
2021/06/03 06:43:47;;;;;;;;;23.25;22.00;;;;;23.71;56.66;101652.13;5076724;27;45287;-71
2021/06/03 06:46:13;;;;;;;;;21.25;18.75;;;;;23.77;56.31;101656.31;5076722;28;45354;-71
2021/06/03 06:48:38;;;;;;;;;19.75;18.00;;;;;23.87;56.49;101659.31;5077292;27;45186;-68
2021/06/03 06:51:04;;;;;;;;;22.00;19.00;;;;;23.95;56.11;101649.91;5075632;28;45383;-70
2021/06/03 06:53:29;;;;;;;;;17.00;16.75;;;;;24.05;55.91;101663.63;5076568;27;45344;-69
2021/06/03 06:59:17;;;;;;;;;20.75;17.25;;;;;24.26;55.07;101661.56;5076741;28;45445;-69
2021/06/03 07:01:42;;;;;;;;;20.75;19.00;;;;;24.32;54.85;101653.22;5077115;27;45674;-68
2021/06/03 07:04:07;;;;;;;;;19.75;17.50;;;;;24.36;55.08;101654.78;5076772;28;45319;-69
2021/06/03 07:06:33;;;;;;;;;23.50;20.50;;;;;24.43;54.75;101650.78;5076789;27;45289;-69
2021/06/03 07:08:58;;;;;;;;;21.50;19.75;;;;;24.52;54.21;101650.28;5076828;28;45314;-67
2021/06/03 07:11:24;;;;;;;;;25.50;19.75;;;;;24.52;53.68;101658.28;5076612;28;46220;-66
2021/06/03 07:13:51;;;;;;;;;21.50;20.75;;;;;24.55;54.21;101658.09;5076469;27;45246;-65
2021/06/03 07:16:17;;;;;;;;;20.50;19.50;;;;;24.62;54.35;101655.94;5079338;27;45436;-67
2021/06/03 07:18:43;;;;;;;;;20.50;19.50;;;;;24.76;54.67;101663.13;5080690;28;45497;-68
2021/06/03 07:21:08;;;;;;;;;22.75;19.50;;;;;24.88;53.79;101665.06;5080129;27;47217;-68
2021/06/03 07:23:34;;;;;;;;;20.50;19.50;;;;;24.93;53.45;101657.66;5080532;27;45385;-69
2021/06/03 07:29:21;;;;;;;;;19.50;16.75;;;;;24.92;52.19;101647.94;5076704;28;45400;-69
2021/06/03 07:31:46;;;;;;;;;21.25;18.75;;;;;24.94;52.14;101651.38;5079839;28;46383;-69
2021/06/03 07:34:11;;;;;;;;;20.75;19.00;;;;;24.84;52.42;101653.72;5080047;27;45363;-66
2021/06/03 07:36:37;;;;;;;;;23.75;23.25;;;;;24.88;52.07;101657.06;5079275;28;45434;-67
2021/06/03 07:39:06;;;;;;;;;21.75;19.00;;;;;24.85;52.14;101647.41;5080287;28;45337;-69
2021/06/03 07:41:32;;;;;;;;;21.00;19.25;;;;;24.76;52.20;101629.28;5078518;28;47287;-68
2021/06/03 07:43:57;;;;;;;;;19.00;16.50;;;;;24.89;52.31;101664.13;5079768;27;45264;-70
2021/06/03 07:46:22;;;;;;;;;19.75;17.00;;;;;24.92;52.05;101669.31;5079964;28;45300;-69
2021/06/03 07:48:48;;;;;;;;;17.00;16.00;;;;;24.95;52.55;101666.44;5080192;28;45530;-68
2021/06/03 07:51:13;;;;;;;;;19.25;17.75;;;;;25.01;52.15;101663.44;5079549;28;46443;-67
2021/06/03 07:53:39;;;;;;;;;21.00;19.50;;;;;25.09;51.81;101676.31;5079856;27;45368;-67
2021/06/03 07:59:26;;;;;;;;;19.00;17.75;;;;;25.12;52.12;101677.03;5079417;28;45257;-67
2021/06/03 08:01:51;;;;;;;;;21.00;17.50;;;;;25.22;51.42;101680.84;5078970;28;47303;-68
2021/06/03 08:04:19;;;;;;;;;21.00;19.00;;;;;25.12;51.92;101669.00;5079168;28;45242;-67
2021/06/03 08:06:45;;;;;;;;;22.50;17.00;;;;;25.24;51.34;101686.97;5079096;27;45278;-67
2021/06/03 08:09:10;;;;;;;;;20.75;19.75;;;;;25.31;51.07;101682.09;5079395;28;45478;-65
2021/06/03 08:11:36;;;;;;;;;20.00;17.75;;;;;25.41;50.32;101693.09;5079130;28;46352;-67
2021/06/03 08:14:01;;;;;;;;;20.50;19.50;;;;;25.39;51.45;101697.69;5078710;28;45459;-68
2021/06/03 08:16:27;;;;;;;;;17.25;16.50;;;;;25.24;51.38;101675.41;5077610;27;45470;-68
2021/06/03 08:18:53;;;;;;;;;18.00;16.75;;;;;25.41;50.31;101693.09;5078922;28;45415;-67
2021/06/03 08:21:18;;;;;;;;;19.75;18.25;;;;;25.33;48.83;101697.09;5077527;28;48149;-69
2021/06/03 08:23:44;;;;;;;;;19.75;17.75;;;;;25.22;49.49;101693.34;5079109;27;45414;-70
2021/06/03 08:29:31;;;;;;;;;18.25;16.75;;;;;25.15;49.85;101697.34;5077080;28;45346;-69
2021/06/03 08:31:57;;;;;;;;;20.50;18.00;;;;;25.15;50.38;101695.56;5078853;27;46692;-68
2021/06/03 08:34:22;;;;;;;;;19.00;17.75;;;;;25.18;50.88;101700.72;5078827;27;45336;-66
2021/06/03 08:36:47;;;;;;;;;15.00;14.25;;;;;25.15;50.52;101686.66;5078989;27;45413;-65
2021/06/03 08:39:13;;;;;;;;;18.00;17.00;;;;;25.23;50.01;101698.59;5079092;27;45504;-67
2021/06/03 08:45:01;;;;;;;;;21.00;19.50;;;;;25.51;49.19;101699.59;5078673;28;45320;-67
2021/06/03 08:47:28;;;;;;;;;15.25;15.25;;;;;25.51;49.62;101700.44;5078761;27;45347;-67
2021/06/03 08:49:53;;;;;;;;;17.75;16.25;;;;;25.58;48.86;101711.66;5079058;27;45426;-68
2021/06/03 08:52:19;;;;;;;;;16.25;15.25;;;;;25.54;49.22;101681.53;5078590;28;46234;-67
2021/06/03 08:54:44;;;;;;;;;16.50;16.50;;;;;25.80;48.99;101693.34;5078298;27;45444;-68
2021/06/03 08:57:11;;;;;;;;;15.75;15.50;;;;;25.93;49.39;101688.91;5078455;28;45289;-68
2021/06/03 08:59:38;;;;;;;;;19.75;16.75;;;;;25.96;47.89;101679.84;5078573;27;45312;-66
2021/06/03 09:02:04;;;;;;;;;18.00;16.25;;;;;25.99;46.18;101689.47;5078279;27;47380;-68
2021/06/03 09:04:30;;;;;;;;;17.00;15.75;;;;;25.86;47.78;101687.59;5078525;27;45283;-68
2021/06/03 09:06:55;;;;;;;;;17.25;15.50;;;;;25.86;47.72;101687.59;5079083;27;45513;-69
2021/06/03 09:09:26;;;;;;;;;17.75;17.25;;;;;26.01;48.32;101691.09;5079088;27;45342;-69
2021/06/03 09:15:15;;;;;;;;;20.50;18.50;;;;;26.42;48.13;101666.16;5078420;28;45390;-69
2021/06/03 09:17:47;;;;;;;;;18.75;18.00;;;;;26.73;48.43;101675.72;5078444;27;45330;-67
2021/06/03 09:20:13;;;;;;;;;19.25;17.75;;;;;26.93;46.81;101679.72;5078901;27;45424;-70
2021/06/03 09:22:42;;;;;;;;;18.75;17.50;;;;;26.99;46.19;101684.69;5078383;27;47031;-68
2021/06/03 09:25:34;;;;;;;;;15.00;14.75;;;;;27.08;46.85;101687.59;5078575;27;45268;-70
2021/06/03 09:28:18;;;;;;;;;16.25;16.00;;;;;27.34;45.97;101690.31;5078517;27;45385;-69
2021/06/03 09:31:06;;;;;;;;;18.50;16.50;;;;;27.53;45.93;101688.06;5078425;27;45463;-70
2021/06/03 09:33:38;;;;;;;;;14.50;13.50;;;;;27.71;45.66;101678.75;5072585;27;46306;-68
2021/06/03 09:36:04;;;;;;;;;15.50;13.50;;;;;27.84;44.83;101684.09;5078051;27;45366;-67
2021/06/03 09:38:30;;;;;;;;;16.50;15.00;;;;;27.92;45.36;101678.19;5078060;27;45292;-70
2021/06/03 09:40:55;;;;;;;;;13.00;12.50;;;;;28.08;44.88;101676.09;5078292;27;45311;-70
2021/06/03 09:43:22;;;;;;;;;16.00;15.75;;;;;28.26;44.81;101685.50;5077882;27;46539;-70
2021/06/03 09:45:55;;;;;;;;;14.00;13.50;;;;;28.44;43.55;101674.38;5078048;27;45312;-68
2021/06/03 09:48:44;;;;;;;;;13.00;10.50;;;;;28.69;44.40;101679.63;5078214;28;45373;-68
2021/06/03 09:51:20;;;;;;;;;14.25;14.00;;;;;28.91;43.59;101679.72;5035535;28;45324;-68
2021/06/03 09:54:06;;;;;;;;;17.75;15.00;;;;;29.15;42.75;101684.19;5035368;28;45602;-70
2021/06/03 09:56:35;;;;;;;;;13.50;12.25;;;;;29.36;42.13;101679.84;5035059;28;45425;-68
2021/06/03 09:59:04;;;;;;;;;13.75;13.75;;;;;29.62;41.65;101675.09;5035327;28;45362;-68
2021/06/03 10:02:00;;;;;;;;;14.75;12.50;;;;;29.80;41.95;101684.41;5035218;28;45545;-70
2021/06/03 10:04:33;;;;;;;;;14.25;13.00;;;;;29.96;41.54;101684.03;5034945;28;46706;-68
2021/06/03 10:07:05;;;;;;;;;16.50;15.50;;;;;30.11;41.37;101687.38;5034831;28;45324;-69
2021/06/03 10:12:53;;;;;;;;;16.75;14.50;;;;;29.83;40.84;101651.00;5035080;28;45542;-71
2021/06/03 10:15:19;;;;;;;;;19.50;14.75;;;;;29.93;40.58;101691.50;5034859;28;46252;-68
2021/06/03 10:18:00;;;;;;;;;17.50;15.50;;;;;29.84;40.84;101688.56;5034649;28;45515;-70
2021/06/03 10:20:39;;;;;;;;;19.50;16.75;;;;;29.76;40.88;101691.03;5034911;28;45641;-67
2021/06/03 10:23:12;;;;;;;;;17.00;15.00;;;;;29.57;40.72;101677.31;5034873;28;45426;-70
2021/06/03 10:28:58;;;;;;;;;18.00;17.25;;;;;28.98;40.92;101669.38;5069260;28;45620;-67
2021/06/03 10:31:24;;;;;;;;;13.75;13.00;;;;;28.86;41.53;101675.69;5077262;28;45275;-68
2021/06/03 10:33:49;;;;;;;;;16.25;15.75;;;;;28.93;41.79;101679.59;5077118;27;45494;-69
2021/06/03 10:36:15;;;;;;;;;14.75;13.25;;;;;29.18;41.19;101671.34;5076882;28;46379;-69
2021/06/03 10:38:41;;;;;;;;;14.25;13.25;;;;;29.48;40.92;101668.16;5075392;28;45362;-70
2021/06/03 10:44:28;;;;;;;;;19.50;17.25;;;;;29.60;40.28;101669.00;5077325;28;45372;-68
2021/06/03 10:46:55;;;;;;;;;15.25;14.50;;;;;29.41;40.50;101666.88;5076404;28;46393;-71
2021/06/03 10:49:23;;;;;;;;;16.00;14.50;;;;;29.33;39.73;101673.84;5076405;28;45420;-69
2021/06/03 10:51:49;;;;;;;;;13.50;12.75;;;;;29.09;40.15;101663.16;5076993;27;45398;-70
2021/06/03 10:54:38;;;;;;;;;15.00;15.00;;;;;29.00;40.86;101680.03;5077122;27;45343;-73
2021/06/03 11:00:37;;;;;;;;;15.00;13.50;;;;;28.84;41.54;101681.16;5076614;28;45746;-73
2021/06/03 11:03:18;;;;;;;;;18.00;15.50;;;;;28.86;41.62;101676.53;5076692;27;45272;-71
2021/06/03 11:05:48;;;;;;;;;15.25;13.25;;;;;29.22;40.72;101674.69;5077118;28;45456;-71
2021/06/03 11:08:28;;;;;;;;;31.50;27.00;;;;;29.70;40.13;101667.28;5076836;27;45682;-70
2021/06/03 11:10:55;;;;;;;;;15.25;14.25;;;;;30.02;39.07;101645.81;5075249;28;45774;-70
2021/06/03 11:13:22;;;;;;;;;17.50;16.25;;;;;30.17;39.60;101662.59;5076583;27;45359;-69
2021/06/03 11:16:08;;;;;;;;;19.25;15.75;;;;;30.16;39.36;101667.13;5076901;27;45234;-70
2021/06/03 11:19:02;;;;;;;;;18.00;16.25;;;;;30.02;39.45;101653.91;5076455;28;46655;-69
2021/06/03 11:21:31;;;;;;;;;14.50;14.25;;;;;29.95;39.39;101660.78;5076800;28;45278;-70
2021/06/03 11:24:07;;;;;;;;;16.75;15.75;;;;;29.83;39.38;101649.16;5077179;28;45370;-69
2021/06/03 11:26:45;;;;;;;;;17.00;16.00;;;;;29.81;39.14;101659.19;5076846;27;45392;-72
2021/06/03 11:29:12;;;;;;;;;16.25;15.50;;;;;29.71;39.61;101658.22;5076326;27;47257;-70
2021/06/03 11:31:49;;;;;;;;;19.25;19.00;;;;;29.59;39.40;101648.44;5076550;27;45474;-69
2021/06/03 11:34:23;;;;;;;;;15.25;15.00;;;;;29.55;39.69;101660.44;5076397;28;45311;-70
2021/06/03 11:37:03;;;;;;;;;17.00;16.00;;;;;29.43;38.98;101664.09;5077103;27;45300;-70
2021/06/03 11:39:32;;;;;;;;;15.25;14.75;;;;;29.30;39.69;101652.56;5076482;27;45388;-70
2021/06/03 11:42:21;;;;;;;;;19.00;15.00;;;;;29.22;39.57;101656.72;5076006;27;45276;-69
2021/06/03 11:45:07;;;;;;;;;14.25;13.75;;;;;29.27;39.71;101656.34;5076482;27;45432;-70
2021/06/03 11:47:39;;;;;;;;;16.25;14.50;;;;;29.45;39.87;101646.00;5076814;27;45446;-69
2021/06/03 11:50:09;;;;;;;;;17.00;15.25;;;;;29.60;39.78;101649.28;5076596;27;46541;-69
2021/06/03 11:52:34;;;;;;;;;15.00;14.25;;;;;29.75;39.35;101635.47;5076573;27;45568;-72
2021/06/03 11:55:04;;;;;;;;;18.75;15.50;;;;;30.00;39.47;101642.41;5076326;28;45362;-72
2021/06/03 11:57:32;;;;;;;;;18.50;17.00;;;;;30.36;39.34;101643.94;5076864;27;45267;-70
2021/06/03 11:59:58;;;;;;;;;14.50;14.00;;;;;30.74;37.97;101640.72;5076203;27;45446;-70
2021/06/03 12:02:28;;;;;;;;;15.50;14.75;;;;;30.80;37.66;101636.66;5078946;27;45719;-72
2021/06/03 12:05:09;;;;;;;;;15.50;15.50;;;;;30.61;37.89;101648.16;5079605;27;45284;-70
2021/06/03 12:07:55;;;;;;;;;13.25;12.50;;;;;30.33;37.95;101635.25;5079874;27;45341;-69
2021/06/03 12:10:40;;;;;;;;;17.25;14.75;;;;;30.13;36.96;101640.47;5079630;27;45665;-70
2021/06/03 12:13:16;;;;;;;;;11.75;11.00;;;;;29.94;37.98;101647.44;5079258;28;45501;-70
2021/06/03 12:15:42;;;;;;;;;14.00;13.00;;;;;29.77;38.36;101643.41;5079477;27;45339;-71
2021/06/03 12:18:07;;;;;;;;;14.00;13.25;;;;;29.69;38.44;101644.03;5079522;27;45269;-69
2021/06/03 12:20:33;;;;;;;;;18.00;15.00;;;;;29.63;38.39;101631.06;5079741;27;45331;-71
2021/06/03 12:23:06;;;;;;;;;14.00;14.00;;;;;29.92;38.97;101639.50;5079226;27;45376;-69